Time;durP1;ratioP1;P1;durP2;ratioP2;P2;SDS_P1;SDS_P2;PMS_P1;PMS_P2;Temp;Humidity;BMP_temperature;BMP_pressure;BME280_temperature;BME280_humidity;BME280_pressure;Samples;Min_cycle;Max_cycle;Signal;HPM_P1;HPM_P2
2023/08/30 00:01:23;;;;;;;0.80;0.80;;;;;;;18.81;88.69;98364.00;5073996;28;20040;-63
2023/08/30 00:03:52;;;;;;;0.50;0.50;;;;;;;18.80;88.77;98375.25;5074204;28;20040;-63
2023/08/30 00:06:21;;;;;;;1.00;0.90;;;;;;;18.86;88.91;98380.91;5073974;28;20036;-63
2023/08/30 00:08:51;;;;;;;1.45;0.93;;;;;;;18.94;88.56;98383.91;5074533;28;20068;-63
2023/08/30 00:11:20;;;;;;;1.85;0.98;;;;;;;18.98;88.81;98380.25;5074256;28;20512;-62
2023/08/30 00:13:49;;;;;;;0.93;0.90;;;;;;;18.97;88.93;98377.75;5073871;28;20131;-63
2023/08/30 00:16:18;;;;;;;1.52;1.17;;;;;;;18.90;88.94;98384.19;5073922;28;20044;-63
2023/08/30 00:18:46;;;;;;;0.60;0.60;;;;;;;18.83;89.10;98395.78;5073967;28;20498;-62
2023/08/30 00:21:16;;;;;;;1.20;0.93;;;;;;;18.85;89.23;98391.34;5073762;28;20089;-62
2023/08/30 00:23:45;;;;;;;0.45;0.40;;;;;;;18.91;89.29;98402.19;5074012;28;20048;-62
2023/08/30 00:26:15;;;;;;;0.70;0.70;;;;;;;18.91;89.01;98406.53;5074860;28;20040;-63
2023/08/30 00:28:44;;;;;;;0.60;0.60;;;;;;;18.94;89.10;98408.94;5073997;28;20269;-63
2023/08/30 00:31:13;;;;;;;0.75;0.75;;;;;;;18.90;88.96;98417.78;5073533;28;20048;-63
2023/08/30 00:33:42;;;;;;;0.50;0.50;;;;;;;18.89;88.89;98423.88;5073677;28;20098;-63
2023/08/30 00:36:13;;;;;;;0.60;0.60;;;;;;;18.92;88.84;98421.13;5073423;28;20047;-63
2023/08/30 00:38:43;;;;;;;1.45;1.35;;;;;;;18.84;88.66;98418.94;5072471;28;20045;-62
2023/08/30 00:41:11;;;;;;;0.50;0.50;;;;;;;18.78;88.47;98421.03;5089480;28;20186;-63
2023/08/30 00:43:42;;;;;;;0.60;0.60;;;;;;;18.70;88.40;98424.88;5073462;28;20087;-63
2023/08/30 00:46:11;;;;;;;0.85;0.77;;;;;;;18.73;88.21;98421.28;5072357;28;20059;-63
2023/08/30 00:48:40;;;;;;;5.95;0.90;;;;;;;18.71;88.21;98423.94;5073449;28;20044;-62
2023/08/30 00:51:10;;;;;;;0.90;0.90;;;;;;;18.74;88.04;98410.84;5072212;28;20047;-63
2023/08/30 00:53:39;;;;;;;0.68;0.68;;;;;;;18.77;87.76;98419.34;5072419;28;20045;-62
2023/08/30 00:56:08;;;;;;;0.63;0.60;;;;;;;18.77;87.41;98406.44;5073489;28;20437;-62
2023/08/30 00:58:38;;;;;;;1.13;0.60;;;;;;;18.79;87.37;98405.44;5072351;28;20045;-62
2023/08/30 01:01:09;;;;;;;0.75;0.75;;;;;;;18.80;87.22;98406.28;5088961;28;20127;-62
2023/08/30 01:03:38;;;;;;;1.08;0.98;;;;;;;18.79;87.23;98404.63;5073739;28;20085;-63
2023/08/30 01:06:07;;;;;;;1.77;0.93;;;;;;;18.77;87.05;98396.09;5073317;28;20136;-63
2023/08/30 01:08:38;;;;;;;1.48;1.20;;;;;;;18.79;86.88;98402.03;5073631;28;20072;-63
2023/08/30 01:11:13;;;;;;;0.50;0.50;;;;;;;18.72;86.63;98394.59;5075436;28;20048;-63
2023/08/30 01:13:49;;;;;;;1.35;1.25;;;;;;;18.67;86.80;98388.00;5076094;28;20037;-63
2023/08/30 01:16:21;;;;;;;0.82;0.80;;;;;;;18.64;86.75;98389.00;5092964;28;20041;-63
2023/08/30 01:18:57;;;;;;;1.33;1.15;;;;;;;18.67;86.46;98399.19;5077646;28;20115;-62
2023/08/30 01:21:41;;;;;;;0.70;0.70;;;;;;;18.66;86.56;98400.13;5077728;28;20083;-63
2023/08/30 01:24:17;;;;;;;0.45;0.45;;;;;;;18.65;86.49;98398.44;5076240;28;20501;-63
2023/08/30 01:26:52;;;;;;;1.10;1.02;;;;;;;18.67;86.36;98396.59;5092760;28;20102;-63
2023/08/30 01:29:23;;;;;;;1.10;1.00;;;;;;;18.72;86.14;98407.53;5076136;28;20040;-62
2023/08/30 01:31:53;;;;;;;0.93;0.88;;;;;;;18.67;85.91;98417.28;5076977;28;20071;-62
2023/08/30 01:34:26;;;;;;;0.68;0.68;;;;;;;18.63;86.16;98426.13;5076948;28;20048;-62
2023/08/30 01:36:55;;;;;;;0.80;0.80;;;;;;;18.63;86.13;98426.13;5076756;28;20076;-63
2023/08/30 01:39:25;;;;;;;0.55;0.55;;;;;;;18.60;86.06;98431.44;5076663;28;20043;-63
2023/08/30 01:41:58;;;;;;;0.70;0.70;;;;;;;18.59;86.20;98434.97;5077069;28;20462;-63
2023/08/30 01:44:30;;;;;;;1.50;1.40;;;;;;;18.66;86.11;98436.31;5075772;28;20045;-62
2023/08/30 01:46:59;;;;;;;5.88;0.98;;;;;;;18.70;85.97;98432.63;5076642;28;20502;-62
2023/08/30 01:49:31;;;;;;;1.10;1.00;;;;;;;18.62;85.94;98427.03;5075353;28;20044;-63
2023/08/30 01:52:02;;;;;;;1.10;1.00;;;;;;;18.66;86.16;98423.38;5075761;28;20570;-63
2023/08/30 01:54:32;;;;;;;0.50;0.50;;;;;;;18.70;86.16;98424.88;5076486;28;20133;-63
2023/08/30 01:57:01;;;;;;;1.13;1.00;;;;;;;18.69;86.32;98418.03;5076728;28;20131;-62
2023/08/30 01:59:32;;;;;;;2.10;1.73;;;;;;;18.64;86.10;98426.97;5076350;28;20045;-62
2023/08/30 02:02:01;;;;;;;0.70;0.70;;;;;;;18.67;86.10;98427.59;5075238;28;20053;-62
2023/08/30 02:04:31;;;;;;;0.70;0.63;;;;;;;18.71;85.98;98423.94;5075305;28;20041;-62
2023/08/30 02:07:05;;;;;;;1.58;1.27;;;;;;;18.60;86.04;98421.09;5076332;28;20067;-62
2023/08/30 02:09:51;;;;;;;1.00;0.90;;;;;;;18.59;86.29;98423.78;5076685;28;20044;-62
2023/08/30 02:12:22;;;;;;;1.25;0.95;;;;;;;18.61;86.22;98422.78;5076528;28;20123;-62
2023/08/30 02:14:54;;;;;;;2.35;1.40;;;;;;;18.65;86.36;98419.13;5076103;28;20498;-63
2023/08/30 02:17:24;;;;;;;2.15;1.58;;;;;;;18.69;86.20;98420.59;5075291;28;20041;-62
2023/08/30 02:19:54;;;;;;;0.77;0.77;;;;;;;18.69;86.57;98418.03;5074847;28;20048;-62
2023/08/30 02:22:22;;;;;;;9.02;1.15;;;;;;;18.66;86.36;98413.03;5075139;28;20051;-63
2023/08/30 02:24:51;;;;;;;1.25;1.00;;;;;;;18.69;86.36;98414.63;5076768;28;20037;-62
2023/08/30 02:27:21;;;;;;;0.88;0.77;;;;;;;18.72;86.32;98407.53;5076014;28;20493;-63
2023/08/30 02:29:51;;;;;;;0.90;0.90;;;;;;;18.71;86.32;98411.00;5076117;28;20109;-63
2023/08/30 02:32:21;;;;;;;0.75;0.70;;;;;;;18.70;86.18;98411.09;5075815;28;20044;-63
2023/08/30 02:34:53;;;;;;;1.33;1.23;;;;;;;18.67;86.25;98419.00;5076668;28;20076;-62
2023/08/30 02:37:23;;;;;;;1.17;1.08;;;;;;;18.60;86.38;98407.34;5074555;28;20134;-62
2023/08/30 02:39:52;;;;;;;0.88;0.82;;;;;;;18.61;86.25;98407.28;5075870;28;20486;-63
2023/08/30 02:42:21;;;;;;;1.05;0.95;;;;;;;18.58;86.24;98415.19;5075927;28;20048;-62
2023/08/30 02:44:49;;;;;;;1.48;1.08;;;;;;;18.55;86.47;98423.09;5075666;28;20506;-63
2023/08/30 02:47:18;;;;;;;1.08;0.98;;;;;;;18.56;86.23;98423.94;5074308;28;20036;-62
2023/08/30 02:49:49;;;;;;;0.93;0.80;;;;;;;18.48;86.23;98421.75;5074625;28;20048;-62
2023/08/30 02:52:19;;;;;;;1.48;1.00;;;;;;;18.44;86.11;98420.22;5074309;28;20759;-62
2023/08/30 02:54:47;;;;;;;1.73;0.80;;;;;;;18.33;86.03;98427.69;5074574;28;20067;-62
2023/08/30 02:57:16;;;;;;;1.45;1.15;;;;;;;18.38;86.28;98425.69;5074146;28;20072;-62
2023/08/30 02:59:45;;;;;;;1.13;1.02;;;;;;;18.42;86.26;98419.47;5074058;28;20036;-62
2023/08/30 03:02:13;;;;;;;1.67;1.13;;;;;;;18.48;86.07;98423.50;5074123;28;20045;-62
2023/08/30 03:04:42;;;;;;;1.00;0.90;;;;;;;18.55;86.09;98423.09;5073961;28;20036;-62
2023/08/30 03:07:13;;;;;;;1.00;0.73;;;;;;;18.51;86.03;98426.78;5074272;28;20037;-62
2023/08/30 03:09:42;;;;;;;0.50;0.50;;;;;;;18.50;86.06;98425.09;5074171;28;20565;-62
2023/08/30 03:12:10;;;;;;;0.77;0.77;;;;;;;18.58;85.97;98428.09;5073975;28;20044;-62
2023/08/30 03:14:41;;;;;;;0.60;0.60;;;;;;;18.61;85.80;98425.38;5075271;28;20273;-62
2023/08/30 03:17:09;;;;;;;3.42;1.13;;;;;;;18.58;85.73;98422.94;5073737;28;20048;-62
2023/08/30 03:19:39;;;;;;;2.08;1.55;;;;;;;18.59;85.95;98427.22;5073712;28;20044;-62
2023/08/30 03:22:09;;;;;;;0.68;0.68;;;;;;;18.55;85.69;98424.84;5074855;28;20052;-62
2023/08/30 03:24:39;;;;;;;0.70;0.68;;;;;;;18.54;85.68;98420.59;5073969;28;20368;-62
2023/08/30 03:27:08;;;;;;;1.35;1.02;;;;;;;18.50;85.73;98421.69;5074837;28;20057;-62
2023/08/30 03:29:37;;;;;;;0.73;0.73;;;;;;;18.48;85.90;98416.59;5073495;28;20048;-63
2023/08/30 03:32:07;;;;;;;0.90;0.88;;;;;;;18.49;85.74;98420.84;5074966;28;20122;-62
2023/08/30 03:34:36;;;;;;;1.45;1.35;;;;;;;18.44;85.85;98427.97;5075664;28;20052;-62
2023/08/30 03:37:05;;;;;;;2.22;1.58;;;;;;;18.44;85.55;98427.97;5073434;28;20045;-62
2023/08/30 03:39:34;;;;;;;1.05;0.95;;;;;;;18.40;85.57;98428.22;5074347;28;20127;-62
2023/08/30 03:42:05;;;;;;;1.75;0.93;;;;;;;18.33;86.02;98432.84;5074737;28;20101;-62
2023/08/30 03:44:34;;;;;;;1.65;1.55;;;;;;;18.21;85.94;98443.81;5073275;28;20044;-62
2023/08/30 03:47:08;;;;;;;1.15;1.05;;;;;;;18.17;86.27;98442.31;5074710;28;20049;-63
2023/08/30 03:49:37;;;;;;;2.85;1.08;;;;;;;18.10;86.52;98440.97;5074167;28;20549;-62
2023/08/30 03:52:08;;;;;;;0.70;0.68;;;;;;;18.05;86.79;98437.75;5074278;28;20483;-63
2023/08/30 03:54:37;;;;;;;0.63;0.63;;;;;;;18.06;86.99;98434.28;5073378;28;20364;-63
2023/08/30 03:57:07;;;;;;;1.05;0.93;;;;;;;18.05;87.30;98432.59;5073298;28;20072;-63
2023/08/30 03:59:36;;;;;;;1.50;1.00;;;;;;;17.95;87.32;98426.22;5072854;28;20051;-62
2023/08/30 04:02:05;;;;;;;1.00;0.90;;;;;;;18.01;87.53;98431.09;5073482;28;20045;-62
2023/08/30 04:04:34;;;;;;;1.40;0.82;;;;;;;17.99;87.69;98433.78;5073114;28;20372;-62
2023/08/30 04:07:03;;;;;;;1.33;1.23;;;;;;;18.02;87.93;98431.00;5074038;28;20052;-62
2023/08/30 04:09:33;;;;;;;0.60;0.60;;;;;;;18.08;87.87;98438.47;5073237;28;20041;-62
2023/08/30 04:12:03;;;;;;;0.80;0.80;;;;;;;18.15;87.95;98438.97;5074258;28;20096;-62
2023/08/30 04:14:34;;;;;;;2.83;0.80;;;;;;;18.09;87.67;98439.31;5073003;28;20110;-62
2023/08/30 04:17:04;;;;;;;0.75;0.75;;;;;;;18.02;87.91;98445.66;5074426;28;20442;-62
2023/08/30 04:19:35;;;;;;;1.15;1.00;;;;;;;18.01;88.00;98451.75;5073700;28;20060;-62
2023/08/30 04:22:05;;;;;;;0.65;0.65;;;;;;;18.01;87.91;98444.00;5074066;28;20398;-62
2023/08/30 04:24:33;;;;;;;1.17;0.90;;;;;;;18.03;88.05;98455.09;5073123;28;20447;-62
2023/08/30 04:27:02;;;;;;;1.02;0.90;;;;;;;17.97;88.07;98450.25;5073577;28;20067;-62
2023/08/30 04:29:35;;;;;;;0.80;0.65;;;;;;;17.98;88.02;98446.75;5089705;28;20421;-62
2023/08/30 04:32:05;;;;;;;1.20;1.10;;;;;;;17.95;88.09;98452.03;5072774;28;20075;-62
2023/08/30 04:34:33;;;;;;;1.60;1.17;;;;;;;17.96;88.25;98444.25;5089358;28;20055;-62
2023/08/30 04:37:04;;;;;;;7.03;1.15;;;;;;;18.01;88.35;98462.09;5073229;28;20057;-62
2023/08/30 04:39:33;;;;;;;1.13;0.80;;;;;;;18.00;88.54;98462.97;5072566;28;20170;-62
2023/08/30 04:42:03;;;;;;;0.88;0.88;;;;;;;17.96;88.37;98456.31;5073624;28;20494;-62
2023/08/30 04:44:32;;;;;;;0.75;0.75;;;;;;;17.95;88.67;98467.53;5072415;28;20049;-62
2023/08/30 04:47:02;;;;;;;0.95;0.85;;;;;;;17.99;88.73;98466.50;5072088;28;20036;-63
2023/08/30 04:49:34;;;;;;;0.68;0.68;;;;;;;17.94;88.74;98476.22;5073565;28;20052;-63
2023/08/30 04:52:05;;;;;;;0.60;0.60;;;;;;;17.98;88.76;98467.38;5073396;28;20041;-62
2023/08/30 04:54:34;;;;;;;0.60;0.60;;;;;;;18.01;88.66;98475.00;5072253;28;20060;-62
2023/08/30 04:57:03;;;;;;;1.70;1.58;;;;;;;17.84;88.68;98470.66;5072712;28;20123;-62
2023/08/30 04:59:34;;;;;;;1.13;1.02;;;;;;;17.79;88.81;98466.63;5073611;28;20090;-62
2023/08/30 05:02:05;;;;;;;0.60;0.60;;;;;;;17.79;89.09;98466.63;5072004;28;20047;-62
2023/08/30 05:04:39;;;;;;;0.80;0.75;;;;;;;17.78;89.38;98475.31;5072442;28;20052;-62
2023/08/30 05:07:08;;;;;;;0.60;0.60;;;;;;;17.79;89.48;98477.81;5072388;28;20060;-62
2023/08/30 05:09:40;;;;;;;2.15;1.65;;;;;;;17.79;89.53;98477.81;5073289;28;20049;-62
2023/08/30 05:12:10;;;;;;;2.47;1.50;;;;;;;17.75;89.77;98470.28;5073237;28;20098;-62
2023/08/30 05:14:40;;;;;;;1.25;1.15;;;;;;;17.75;89.93;98471.13;5072093;28;20064;-61
2023/08/30 05:17:11;;;;;;;1.30;1.20;;;;;;;17.76;90.13;98471.94;5072348;28;20048;-62
2023/08/30 05:19:40;;;;;;;1.65;1.30;;;;;;;17.79;90.41;98474.38;5072317;28;20075;-62
2023/08/30 05:22:09;;;;;;;1.30;1.20;;;;;;;17.85;90.71;98484.41;5072141;28;20045;-61
2023/08/30 05:24:38;;;;;;;1.13;1.02;;;;;;;17.87;90.91;98480.00;5071986;28;20043;-61
2023/08/30 05:27:07;;;;;;;0.63;0.60;;;;;;;17.82;90.74;98476.81;5073169;28;20071;-61
2023/08/30 05:29:41;;;;;;;0.52;0.52;;;;;;;17.75;91.16;98475.44;5073113;28;20113;-61
2023/08/30 05:32:11;;;;;;;1.25;1.15;;;;;;;17.78;91.40;98481.28;5071864;28;20075;-61
2023/08/30 05:34:49;;;;;;;0.60;0.60;;;;;;;17.82;91.40;98481.97;5073422;28;20439;-61
2023/08/30 05:37:41;;;;;;;2.17;0.93;;;;;;;17.86;92.00;98476.59;5062549;28;20168;-61
2023/08/30 05:40:21;;;;;;;0.98;0.82;;;;;;;17.96;91.80;98482.13;5073049;28;20487;-61
2023/08/30 05:42:50;;;;;;;1.60;1.50;;;;;;;17.95;91.85;98476.13;5073170;28;20459;-61
2023/08/30 05:45:19;;;;;;;1.65;1.00;;;;;;;17.96;91.83;98484.72;5072854;28;20040;-61
2023/08/30 05:47:49;;;;;;;0.50;0.50;;;;;;;17.99;91.83;98489.72;5071770;28;20047;-61
2023/08/30 05:50:18;;;;;;;0.63;0.63;;;;;;;17.92;91.74;98494.34;5072954;28;20055;-61
2023/08/30 05:52:47;;;;;;;1.13;1.00;;;;;;;17.90;91.85;98492.78;5071618;28;20144;-61
2023/08/30 05:55:16;;;;;;;1.55;1.23;;;;;;;17.94;91.75;98496.88;5071909;28;20044;-61
2023/08/30 05:57:45;;;;;;;0.50;0.50;;;;;;;18.02;91.85;98494.72;5073047;28;20044;-61
2023/08/30 06:00:15;;;;;;;1.58;0.52;;;;;;;18.00;91.79;98501.72;5075747;28;20508;-61
2023/08/30 06:02:44;;;;;;;0.57;0.57;;;;;;;17.95;91.61;98503.69;5076986;28;20060;-61
2023/08/30 06:05:15;;;;;;;0.80;0.70;;;;;;;17.93;91.51;98500.34;5076287;28;20044;-61
2023/08/30 06:07:44;;;;;;;1.33;1.23;;;;;;;17.95;91.65;98495.94;5076324;28;20045;-61
2023/08/30 06:10:13;;;;;;;0.40;0.40;;;;;;;17.91;91.43;98497.00;5077130;28;20037;-61
2023/08/30 06:12:42;;;;;;;2.00;1.15;;;;;;;17.95;91.59;98498.50;5076142;28;20044;-61
2023/08/30 06:15:11;;;;;;;0.60;0.60;;;;;;;18.01;91.60;98511.13;5077872;28;20031;-63
2023/08/30 06:17:40;;;;;;;0.87;0.87;;;;;;;18.04;91.71;98516.97;5084551;28;20055;-61
2023/08/30 06:20:10;;;;;;;23.85;2.08;;;;;;;18.09;91.98;98507.25;5096303;28;20093;-61
2023/08/30 06:22:42;;;;;;;1.02;0.93;;;;;;;18.13;91.67;98513.13;5096240;28;20133;-61
2023/08/30 06:25:13;;;;;;;1.00;0.82;;;;;;;18.08;91.25;98509.91;5095349;28;20562;-62
2023/08/30 06:27:44;;;;;;;0.60;0.60;;;;;;;17.94;91.36;98507.19;5096223;28;20051;-61
2023/08/30 06:30:14;;;;;;;0.50;0.50;;;;;;;17.95;91.30;98508.84;5094935;28;20074;-61
2023/08/30 06:32:43;;;;;;;2.35;1.05;;;;;;;18.01;91.24;98511.13;5096472;28;20047;-61
2023/08/30 06:35:12;;;;;;;0.60;0.60;;;;;;;18.06;91.20;98511.75;5090425;28;20119;-61
2023/08/30 06:37:42;;;;;;;0.65;0.65;;;;;;;18.18;91.20;98516.31;5075614;28;20053;-61
2023/08/30 06:40:12;;;;;;;0.88;0.85;;;;;;;18.23;90.86;98514.34;5082289;28;20044;-62
2023/08/30 06:42:40;;;;;;;;;;;;;;;18.18;90.66;98516.31;5096166;28;20128;-62
2023/08/30 06:45:10;;;;;;;0.65;0.65;;;;;;;18.22;90.55;98515.22;5094849;28;19931;-62
2023/08/30 06:47:38;;;;;;;;;;;;;;;18.27;90.35;98515.84;5094997;28;20138;-62
2023/08/30 06:50:09;;;;;;;0.47;0.47;;;;;;;18.34;90.08;98519.78;5086065;28;19963;-62
2023/08/30 06:52:38;;;;;;;0.55;0.55;;;;;;;18.31;89.84;98517.34;5096071;28;20075;-62
2023/08/30 06:55:09;;;;;;;0.40;0.40;;;;;;;18.29;89.79;98519.19;5094685;28;20445;-62
2023/08/30 06:57:38;;;;;;;0.50;0.50;;;;;;;18.36;89.58;98517.94;5093493;28;20118;-66
2023/08/30 07:00:08;;;;;;;0.75;0.50;;;;;;;18.37;89.50;98522.22;5093843;28;20048;-62
2023/08/30 07:02:39;;;;;;;0.47;0.47;;;;;;;18.48;89.26;98512.19;5095559;28;20058;-62
2023/08/30 07:05:09;;;;;;;0.50;0.50;;;;;;;18.52;88.95;98516.28;5095780;28;20097;-62
2023/08/30 07:07:38;;;;;;;;;;;;;;;18.52;88.64;98510.28;5075792;28;20044;-62
2023/08/30 07:10:09;;;;;;;7.05;0.75;;;;;;;18.55;88.79;98505.78;5103830;28;19978;-62
2023/08/30 07:12:38;;;;;;;0.55;0.55;;;;;;;18.59;88.63;98520.25;5114808;28;20138;-62
2023/08/30 07:15:08;;;;;;;0.52;0.50;;;;;;;18.68;88.54;98512.00;5115940;27;20076;-62
2023/08/30 07:17:37;;;;;;;1.48;1.02;;;;;;;18.72;88.46;98518.69;5115543;28;20054;-62
2023/08/30 07:20:20;;;;;;;1.15;1.05;;;;;;;18.79;88.50;98518.38;5082332;28;20051;-62
2023/08/30 07:22:49;;;;;;;0.80;0.80;;;;;;;18.86;88.54;98514.53;5074733;28;20051;-62
2023/08/30 07:25:20;;;;;;;0.47;0.47;;;;;;;18.85;88.52;98512.88;5075439;28;20177;-62
2023/08/30 07:27:48;;;;;;;0.40;0.40;;;;;;;18.90;88.23;98516.03;5074973;28;20071;-62
2023/08/30 07:30:17;;;;;;;0.65;0.63;;;;;;;18.90;87.95;98511.72;5094820;28;20048;-62
2023/08/30 07:32:46;;;;;;;0.32;0.32;;;;;;;18.90;87.66;98508.28;5094782;28;20474;-62
2023/08/30 07:35:17;;;;;;;0.35;0.35;;;;;;;18.93;87.67;98510.72;5095023;28;20536;-62
2023/08/30 07:37:46;;;;;;;0.45;0.45;;;;;;;19.04;87.36;98513.56;5094593;28;20086;-62
2023/08/30 07:40:15;;;;;;;0.50;0.50;;;;;;;19.03;86.99;98522.22;5093950;28;20090;-62
2023/08/30 07:42:45;;;;;;;0.40;0.40;;;;;;;18.83;86.88;98525.88;5094929;28;20040;-62
2023/08/30 07:45:14;;;;;;;1.20;0.77;;;;;;;18.77;87.28;98530.53;5094671;28;20051;-62
2023/08/30 07:47:42;;;;;;;1.30;1.20;;;;;;;18.80;87.54;98536.38;5094874;28;20486;-62
2023/08/30 07:50:12;;;;;;;0.98;0.70;;;;;;;18.73;87.77;98535.88;5092346;28;20328;-62
2023/08/30 07:52:41;;;;;;;0.75;0.75;;;;;;;18.64;88.06;98531.16;5095057;28;20040;-62
2023/08/30 07:55:15;;;;;;;0.60;0.60;;;;;;;18.44;88.22;98536.50;5094485;28;20070;-62
2023/08/30 07:57:45;;;;;;;8.70;0.82;;;;;;;18.37;88.88;98537.72;5094918;28;20117;-61
2023/08/30 08:00:15;;;;;;;1.05;0.95;;;;;;;18.32;89.10;98546.59;5093029;28;20040;-62
2023/08/30 08:02:45;;;;;;;0.50;0.50;;;;;;;18.28;89.53;98547.69;5093364;28;20398;-66
2023/08/30 08:05:14;;;;;;;3.28;2.97;;;;;;;18.29;89.88;98539.84;5090178;28;20060;-62
2023/08/30 08:07:44;;;;;;;1.50;1.07;;;;;;;18.30;90.05;98541.53;5091940;28;20044;-62
2023/08/30 08:10:13;;;;;;;0.60;0.60;;;;;;;18.35;90.31;98546.47;5094804;28;20055;-62
2023/08/30 08:12:42;;;;;;;0.65;0.65;;;;;;;18.31;90.44;98550.94;5094197;28;20048;-62
2023/08/30 08:15:13;;;;;;;1.10;1.02;;;;;;;18.28;90.66;98548.53;5094098;28;20044;-62
2023/08/30 08:17:42;;;;;;;1.48;1.02;;;;;;;18.28;90.81;98551.09;5093210;28;20088;-62
2023/08/30 08:20:11;;;;;;;0.80;0.80;;;;;;;18.25;91.12;98559.00;5092590;28;20040;-61
2023/08/30 08:22:40;;;;;;;0.40;0.40;;;;;;;18.20;91.48;98563.56;5093893;28;20513;-62
2023/08/30 08:25:10;;;;;;;0.80;0.80;;;;;;;18.22;91.67;98561.72;5093136;28;20048;-61
2023/08/30 08:27:40;;;;;;;0.77;0.77;;;;;;;18.25;91.86;98553.81;5080679;28;20040;-61
2023/08/30 08:30:10;;;;;;;0.60;0.60;;;;;;;18.23;92.09;98566.00;5073792;28;20127;-62
2023/08/30 08:32:41;;;;;;;0.40;0.40;;;;;;;18.24;92.21;98557.31;5073862;28;20045;-61
2023/08/30 08:35:10;;;;;;;0.40;0.40;;;;;;;18.40;92.51;98559.97;5073696;28;20059;-62
2023/08/30 08:37:39;;;;;;;0.50;0.50;;;;;;;18.44;92.41;98567.50;5084293;28;20040;-61
2023/08/30 08:40:09;;;;;;;0.50;0.50;;;;;;;18.52;92.65;98565.38;5093701;28;20549;-61
2023/08/30 08:42:45;;;;;;;0.40;0.40;;;;;;;18.53;92.55;98564.47;5093685;28;20098;-62
2023/08/30 08:45:16;;;;;;;0.38;0.38;;;;;;;18.57;92.63;98571.16;5093721;28;20036;-61
2023/08/30 08:47:49;;;;;;;0.50;0.50;;;;;;;18.60;92.62;98575.31;5092685;28;20046;-61
2023/08/30 08:50:19;;;;;;;0.50;0.50;;;;;;;18.61;92.59;98572.69;5092412;28;20048;-62
2023/08/30 08:52:49;;;;;;;0.82;0.50;;;;;;;18.60;92.33;98572.75;5093876;28;20044;-62
2023/08/30 08:55:31;;;;;;;0.32;0.32;;;;;;;18.59;92.43;98582.28;5093779;28;20041;-62
2023/08/30 08:58:01;;;;;;;0.43;0.43;;;;;;;18.63;92.43;98583.78;5077809;28;20051;-62
2023/08/30 09:00:31;;;;;;;0.40;0.40;;;;;;;18.60;92.21;98594.25;5073403;28;20040;-62
2023/08/30 09:03:04;;;;;;;0.40;0.40;;;;;;;18.65;92.14;98589.69;5088063;28;20123;-61
2023/08/30 09:05:35;;;;;;;0.70;0.70;;;;;;;18.66;91.92;98588.81;5094181;28;20048;-61
2023/08/30 09:08:06;;;;;;;0.40;0.40;;;;;;;18.61;91.60;98587.34;5092665;28;20066;-61
2023/08/30 09:10:37;;;;;;;0.43;0.43;;;;;;;18.69;91.50;98585.22;5093744;28;20462;-61
2023/08/30 09:13:06;;;;;;;0.40;0.40;;;;;;;18.78;91.46;98584.75;5093428;28;20036;-61
2023/08/30 09:15:36;;;;;;;0.40;0.40;;;;;;;18.81;91.04;98584.59;5092295;28;20574;-61
2023/08/30 09:18:16;;;;;;;0.55;0.55;;;;;;;18.89;90.67;98591.94;5092295;28;20044;-61
2023/08/30 09:20:46;;;;;;;0.40;0.40;;;;;;;18.93;90.35;98590.88;5093693;28;20097;-61
2023/08/30 09:23:18;;;;;;;0.40;0.40;;;;;;;18.93;89.92;98593.47;5093132;28;20093;-62
2023/08/30 09:25:47;;;;;;;0.45;0.45;;;;;;;18.95;89.43;98596.81;5093406;28;20398;-61
2023/08/30 09:28:16;;;;;;;0.60;0.60;;;;;;;19.00;88.97;98600.00;5076595;28;20521;-61
2023/08/30 09:30:51;;;;;;;0.50;0.50;;;;;;;19.05;88.40;98601.41;5073108;28;20041;-61
2023/08/30 09:33:24;;;;;;;0.50;0.50;;;;;;;19.04;88.17;98592.00;5075869;28;20067;-61
2023/08/30 09:35:53;;;;;;;0.40;0.40;;;;;;;19.06;87.74;98600.50;5076956;28;20494;-61
2023/08/30 09:38:23;;;;;;;0.68;0.60;;;;;;;19.12;87.67;98601.94;5093053;28;20129;-61
2023/08/30 09:40:52;;;;;;;0.40;0.40;;;;;;;19.16;87.44;98604.28;5097821;28;20044;-62
2023/08/30 09:43:24;;;;;;;0.75;0.75;;;;;;;19.20;87.22;98602.34;5095752;28;20052;-62
2023/08/30 09:45:53;;;;;;;5.32;0.88;;;;;;;19.25;86.92;98615.88;5094340;28;20043;-61
2023/08/30 09:48:24;;;;;;;0.40;0.40;;;;;;;19.21;86.94;98609.22;5097268;28;20071;-62
2023/08/30 09:50:55;;;;;;;0.80;0.50;;;;;;;19.30;86.97;98613.88;5097204;28;20521;-61
2023/08/30 09:53:27;;;;;;;0.40;0.40;;;;;;;19.37;86.73;98612.69;5092732;28;20559;-61
2023/08/30 09:55:57;;;;;;;4.03;1.10;;;;;;;19.40;87.04;98615.09;5076642;28;20053;-62
2023/08/30 09:58:29;;;;;;;0.77;0.77;;;;;;;19.43;86.85;98612.38;5094894;28;20036;-62
2023/08/30 10:01:02;;;;;;;0.40;0.40;;;;;;;19.54;86.85;98607.44;5096765;28;20048;-62
2023/08/30 10:03:34;;;;;;;0.40;0.40;;;;;;;19.66;86.83;98611.94;5096078;28;20451;-62
2023/08/30 10:06:07;;;;;;;0.52;0.52;;;;;;;19.71;86.37;98604.75;5096497;28;20071;-62
2023/08/30 10:08:39;;;;;;;0.60;0.60;;;;;;;19.76;86.38;98607.94;5116956;28;20040;-62
2023/08/30 10:11:10;;;;;;;0.60;0.60;;;;;;;19.79;85.94;98615.56;5077249;28;20071;-62
2023/08/30 10:13:43;;;;;;;0.45;0.45;;;;;;;19.87;85.89;98604.75;5076249;28;20044;-62
2023/08/30 10:16:17;;;;;;;0.40;0.40;;;;;;;20.01;85.89;98608.22;5078965;28;20520;-63
2023/08/30 10:18:51;;;;;;;0.40;0.40;;;;;;;19.99;85.49;98604.91;5095625;28;20074;-62
2023/08/30 10:21:41;;;;;;;0.40;0.40;;;;;;;20.05;84.81;98607.16;5096299;28;20052;-62
2023/08/30 10:24:14;;;;;;;0.40;0.40;;;;;;;20.16;84.58;98605.69;5096244;28;20059;-62
2023/08/30 10:27:04;;;;;;;0.40;0.40;;;;;;;20.37;84.57;98601.94;5094362;28;20036;-62
2023/08/30 10:29:35;;;;;;;0.50;0.50;;;;;;;20.55;84.39;98598.25;5096127;28;20044;-62
2023/08/30 10:32:05;;;;;;;0.40;0.40;;;;;;;20.58;83.78;98598.09;5096494;28;20071;-63
2023/08/30 10:34:35;;;;;;;;;;;;;;;20.46;82.84;98604.84;5095548;28;20040;-62
2023/08/30 10:37:08;;;;;;;0.60;0.60;;;;;;;20.34;82.82;98609.88;5096642;28;20423;-63
2023/08/30 10:39:38;;;;;;;0.50;0.50;;;;;;;20.39;82.75;98613.03;5096628;28;20043;-62
2023/08/30 10:42:11;;;;;;;0.40;0.40;;;;;;;20.26;82.20;98609.47;5106926;28;20036;-62
2023/08/30 10:44:51;;;;;;;0.70;0.70;;;;;;;20.28;81.88;98616.25;5115997;28;20043;-62
2023/08/30 10:47:25;;;;;;;0.40;0.40;;;;;;;20.32;81.98;98606.56;5100172;28;20039;-62
2023/08/30 10:49:57;;;;;;;0.40;0.40;;;;;;;20.23;81.49;98607.88;5096380;28;20478;-62
2023/08/30 10:52:28;;;;;;;0.55;0.55;;;;;;;20.16;81.58;98616.06;5095816;28;20064;-62
2023/08/30 10:55:07;;;;;;;0.68;0.68;;;;;;;20.04;82.00;98610.66;5094882;28;20048;-62
2023/08/30 10:57:37;;;;;;;0.50;0.50;;;;;;;20.12;82.02;98609.38;5095713;28;20093;-63
2023/08/30 11:00:09;;;;;;;;;;;;;;;20.06;81.89;98611.41;5095287;28;20055;-62
2023/08/30 11:02:39;;;;;;;0.40;0.40;;;;;;;20.01;82.04;98615.19;5095926;28;19919;-62
2023/08/30 11:05:10;;;;;;;0.50;0.50;;;;;;;19.96;82.10;98610.25;5094588;28;20433;-62
2023/08/30 11:07:39;;;;;;;0.40;0.40;;;;;;;19.90;82.04;98605.41;5095786;28;20402;-62
2023/08/30 11:10:08;;;;;;;2.55;1.17;;;;;;;19.93;81.72;98614.78;5082599;28;20124;-66
2023/08/30 11:12:37;;;;;;;;;;;;;;;19.90;81.81;98615.78;5094736;28;20036;-62
2023/08/30 11:15:09;;;;;;;0.35;0.35;;;;;;;19.87;82.02;98610.75;5095281;28;19926;-62
2023/08/30 11:17:38;;;;;;;0.50;0.50;;;;;;;19.92;81.51;98605.31;5095487;28;20056;-63
2023/08/30 11:20:10;;;;;;;0.45;0.45;;;;;;;19.87;81.39;98609.91;5095092;28;20043;-63
2023/08/30 11:22:42;;;;;;;0.40;0.40;;;;;;;19.87;81.17;98604.75;5095020;28;20044;-62
2023/08/30 11:25:13;;;;;;;3.90;1.42;;;;;;;19.86;80.92;98611.69;5093760;28;20044;-62
2023/08/30 11:27:43;;;;;;;0.73;0.73;;;;;;;19.90;80.91;98610.59;5091404;28;20502;-62
2023/08/30 11:30:12;;;;;;;0.40;0.40;;;;;;;19.88;81.27;98612.44;5095003;28;20054;-62
2023/08/30 11:32:43;;;;;;;0.55;0.55;;;;;;;19.88;81.12;98615.03;5094984;28;20052;-62
2023/08/30 11:35:17;;;;;;;0.50;0.50;;;;;;;19.86;80.66;98614.28;5093642;28;20052;-62
2023/08/30 11:37:46;;;;;;;0.45;0.45;;;;;;;19.88;80.65;98609.84;5094770;28;20052;-62
2023/08/30 11:40:15;;;;;;;0.32;0.32;;;;;;;19.89;80.79;98608.91;5095116;28;20036;-63
2023/08/30 11:42:44;;;;;;;0.73;0.73;;;;;;;19.95;80.65;98608.59;5094745;28;20040;-62
2023/08/30 11:45:15;;;;;;;0.57;0.57;;;;;;;19.95;80.63;98610.34;5092623;28;20048;-62
2023/08/30 11:47:45;;;;;;;0.38;0.38;;;;;;;19.99;80.35;98604.06;5094935;28;20040;-62
2023/08/30 11:50:16;;;;;;;0.50;0.50;;;;;;;20.08;80.21;98606.97;5094620;28;20048;-62